Bolen Town, South Carolina
Current Conditions -  °F | °C
As of 4:53 AM on Wednesday 22 Oct 2014 (Local Time) from KOGB Reporting Station
Clear Clear  
Wind Chill: 53°   Ceiling: Unl
Heat Index: 53°   Visibility: 10mi
Dew Point: 42°   Wind: 7mph
Humidity: 66%   Direction: 10°N
Pressure: 29.98"   Gusts: NA
Location:  33.4964°N, 80.8317°W
Report Text: KOGB 220853Z AUTO 01006KT 10SM CLR 12/06 A2998 RMK AO2 SLP149 T01170056 53003
Loading
Personal Weather Stations






























Interactive Weather Map
Tropical Storm Tracking
New forecast layout! Learn more

10-Day Weather Forecast

Advertisements
Track Severe Weather on mobile